createdAt,value
2022-08-30T16:21:43.013Z,99541.91
2022-08-30T16:24:46.616Z,99543.47
2022-08-30T16:27:49.628Z,99536.50
2022-08-30T16:30:53.722Z,99508.47
2022-08-30T16:34:02.599Z,99528.13
2022-08-30T16:37:07.860Z,99529.47
2022-08-30T16:40:12.157Z,99518.38
2022-08-30T16:43:16.384Z,99527.84
2022-08-30T16:46:23.241Z,99522.06
2022-08-30T16:49:26.693Z,99522.69
2022-08-30T16:52:29.531Z,99531.59
2022-08-30T16:55:36.438Z,99530.91
2022-08-30T16:58:39.188Z,99518.38
2022-08-30T17:01:44.083Z,99532.41
2022-08-30T17:04:52.945Z,99503.41
2022-08-30T17:07:56.363Z,99534.81
2022-08-30T17:10:59.658Z,99542.50
2022-08-30T17:14:03.907Z,99529.88
2022-08-30T17:17:06.918Z,99546.53
2022-08-30T17:20:10.479Z,99535.28
2022-08-30T17:23:14.293Z,99554.56
2022-08-30T17:26:17.748Z,99539.19
2022-08-30T17:29:20.605Z,99557.41
2022-08-30T17:32:25.507Z,99566.34
2022-08-30T17:35:28.769Z,99555.25
2022-08-30T17:38:32.162Z,99570.28
2022-08-30T17:41:35.410Z,99569.75
2022-08-30T17:44:42.158Z,99579.19
2022-08-30T17:47:45.998Z,99577.50
2022-08-30T17:50:56.073Z,99577.91
2022-08-30T17:53:59.719Z,99555.53
2022-08-30T17:57:10.795Z,99582.16
2022-08-30T18:00:15.771Z,99596.91
2022-08-30T18:03:18.949Z,99598.75
2022-08-30T18:06:21.986Z,99598.91
2022-08-30T18:09:25.176Z,99601.91
2022-08-30T18:12:27.858Z,99599.47
2022-08-30T18:15:31.009Z,99598.66
2022-08-30T18:18:33.718Z,99602.91
2022-08-30T18:21:37.581Z,99587.31
2022-08-30T18:24:40.644Z,99586.19
2022-08-30T18:27:43.795Z,99609.03
2022-08-30T18:30:56.060Z,99614.09
2022-08-30T18:34:00.446Z,99619.84
2022-08-30T18:37:03.258Z,99626.06
2022-08-30T18:40:09.692Z,99626.41
2022-08-30T18:43:12.660Z,99608.97
2022-08-30T18:46:18.089Z,99631.16
2022-08-30T18:49:21.440Z,99629.69
2022-08-30T18:52:26.179Z,99611.75
2022-08-30T18:55:29.066Z,99633.47
2022-08-30T18:58:32.193Z,99637.06
2022-08-30T19:01:34.997Z,99632.00
2022-08-30T19:04:39.006Z,99602.78
2022-08-30T19:07:45.929Z,99633.16
2022-08-30T19:10:50.386Z,99621.75
2022-08-30T19:13:54.565Z,99599.19
2022-08-30T19:17:02.004Z,99632.66
2022-08-30T19:20:11.475Z,99637.41
2022-08-30T19:23:14.561Z,99624.00
2022-08-30T19:26:17.507Z,99639.88
2022-08-30T19:29:21.127Z,99642.81
2022-08-30T19:32:23.962Z,99633.47
2022-08-30T19:35:27.019Z,99637.75
2022-08-30T19:38:35.656Z,99628.44
2022-08-30T19:41:38.697Z,99619.63
2022-08-30T19:44:41.460Z,99601.72
2022-08-30T19:47:46.044Z,99643.66
2022-08-30T19:50:49.769Z,99634.66
2022-08-30T19:53:53.003Z,99620.31
2022-08-30T19:57:00.593Z,99603.66
2022-08-30T20:00:07.579Z,99631.41
2022-08-30T20:03:14.129Z,99628.16
2022-08-30T20:06:19.765Z,99628.31
2022-08-30T20:09:22.793Z,99614.44
2022-08-30T20:12:26.419Z,99614.44
2022-08-30T20:15:29.074Z,99590.13
2022-08-30T20:18:33.453Z,99621.78
2022-08-30T20:21:36.687Z,99631.75
2022-08-30T20:24:43.965Z,99615.72
2022-08-30T20:27:46.992Z,99618.50
2022-08-30T20:30:50.592Z,99615.88
2022-08-30T20:33:53.382Z,99618.63
2022-08-30T20:36:57.738Z,99596.37
2022-08-30T20:40:02.247Z,99618.09
2022-08-30T20:43:06.929Z,99589.66
2022-08-30T20:46:15.453Z,99624.97
2022-08-30T20:49:20.414Z,99626.94
2022-08-30T20:52:23.431Z,99627.28
2022-08-30T20:55:26.892Z,99628.91
2022-08-30T20:58:30.949Z,99623.81
2022-08-30T21:01:36.502Z,99626.59
2022-08-30T21:04:41.058Z,99628.72
2022-08-30T21:07:45.861Z,99621.38
2022-08-30T21:10:48.816Z,99609.94
2022-08-30T21:13:51.728Z,99623.00
2022-08-30T21:16:54.481Z,99622.38
2022-08-30T21:19:57.719Z,99624.81
2022-08-30T21:23:03.173Z,99628.72
2022-08-30T21:26:08.060Z,99618.09
2022-08-30T21:29:12.013Z,99613.37
2022-08-30T21:32:15.129Z,99618.91
2022-08-30T21:35:36.827Z,99619.50
2022-08-30T21:38:39.805Z,99621.44
2022-08-30T21:41:43.705Z,99612.44
2022-08-30T21:44:46.678Z,99615.25
2022-08-30T21:47:49.409Z,99613.59
2022-08-30T21:50:52.373Z,99613.03
2022-08-30T21:53:57.139Z,99621.13
2022-08-30T21:57:03.204Z,99610.13
2022-08-30T22:00:07.320Z,99609.69
2022-08-30T22:03:09.931Z,99613.63
2022-08-30T22:06:14.458Z,99614.41
2022-08-30T22:09:19.958Z,99606.28
2022-08-30T22:12:23.675Z,99603.59
2022-08-30T22:15:28.811Z,99600.72
2022-08-30T22:18:33.029Z,99574.69
2022-08-30T22:21:37.816Z,99597.28
2022-08-30T22:24:40.839Z,99605.91
2022-08-30T22:27:43.638Z,99588.50
2022-08-30T22:30:48.047Z,99607.25
2022-08-30T22:33:51.773Z,99580.88
2022-08-30T22:36:54.728Z,99603.25
2022-08-30T22:39:57.397Z,99600.78
2022-08-30T22:43:01.287Z,99602.09
2022-08-30T22:46:07.147Z,99606.09
2022-08-30T22:49:11.146Z,99606.50
2022-08-30T22:52:14.411Z,99588.44
2022-08-30T22:55:17.483Z,99601.16
2022-08-30T22:58:20.332Z,99587.19
2022-08-30T23:01:27.140Z,99606.19
2022-08-30T23:04:29.860Z,99594.50
2022-08-30T23:07:32.779Z,99604.00
2022-08-30T23:10:35.976Z,99576.63
2022-08-30T23:13:39.027Z,99594.69
2022-08-30T23:16:41.720Z,99575.19
2022-08-30T23:19:44.728Z,99583.03
2022-08-30T23:22:57.933Z,99590.19
2022-08-30T23:26:20.512Z,99590.31
2022-08-30T23:29:41.917Z,99567.91
2022-08-30T23:33:03.742Z,99589.41
2022-08-30T23:36:30.154Z,99594.72
2022-08-30T23:39:51.657Z,99588.38
2022-08-30T23:43:13.223Z,99563.22
2022-08-30T23:46:35.159Z,99579.81
2022-08-30T23:49:56.628Z,99563.53
2022-08-30T23:53:18.198Z,99577.56
2022-08-30T23:56:39.416Z,99582.31
